sensor_id;sensor_type;location;lat;lon;timestamp;P1;durP1;ratioP1;P2;durP2;ratioP2
23573;SDS011;11965;53.640;10.050;2022-10-22T00:01:48;139013.20;;;67190.95;;
23573;SDS011;11965;53.640;10.050;2022-10-22T00:04:13;139342.89;;;67323.46;;
23573;SDS011;11965;53.640;10.050;2022-10-22T00:06:39;139260.58;;;67289.13;;
23573;SDS011;11965;53.640;10.050;2022-10-22T00:09:07;139321.64;;;67314.50;;
23573;SDS011;11965;53.640;10.050;2022-10-22T00:11:32;139305.34;;;67301.87;;
23573;SDS011;11965;53.640;10.050;2022-10-22T00:13:58;139209.22;;;67264.16;;
23573;SDS011;11965;53.640;10.050;2022-10-22T00:16:23;139176.55;;;67252.90;;
23573;SDS011;11965;53.640;10.050;2022-10-22T00:18:49;139219.84;;;67269.31;;
23573;SDS011;11965;53.640;10.050;2022-10-22T00:21:15;138918.48;;;67152.66;;
23573;SDS011;11965;53.640;10.050;2022-10-22T00:23:41;139139.59;;;67238.26;;
23573;SDS011;11965;53.640;10.050;2022-10-22T00:26:07;139295.17;;;67298.35;;
23573;SDS011;11965;53.640;10.050;2022-10-22T00:28:33;139143.27;;;67237.07;;
23573;SDS011;11965;53.640;10.050;2022-10-22T00:30:59;139013.88;;;67175.98;;
23573;SDS011;11965;53.640;10.050;2022-10-22T00:33:26;139235.84;;;67269.58;;
23573;SDS011;11965;53.640;10.050;2022-10-22T00:35:53;139274.70;;;67285.79;;
23573;SDS011;11965;53.640;10.050;2022-10-22T00:38:18;138940.28;;;67155.29;;
23573;SDS011;11965;53.640;10.050;2022-10-22T00:40:44;138985.78;;;67174.30;;
23573;SDS011;11965;53.640;10.050;2022-10-22T00:43:10;139145.72;;;67242.68;;
23573;SDS011;11965;53.640;10.050;2022-10-22T00:45:37;139250.30;;;67282.92;;
23573;SDS011;11965;53.640;10.050;2022-10-22T00:48:04;139293.78;;;67303.42;;
23573;SDS011;11965;53.640;10.050;2022-10-22T00:50:39;139128.20;;;67230.57;;
23573;SDS011;11965;53.640;10.050;2022-10-22T00:53:11;139090.88;;;67213.76;;
23573;SDS011;11965;53.640;10.050;2022-10-22T00:55:43;138928.14;;;67148.66;;
23573;SDS011;11965;53.640;10.050;2022-10-22T00:58:13;138999.47;;;67180.06;;
23573;SDS011;11965;53.640;10.050;2022-10-22T01:00:40;138835.16;;;67121.50;;
23573;SDS011;11965;53.640;10.050;2022-10-22T01:03:06;139128.17;;;67230.70;;
23573;SDS011;11965;53.640;10.050;2022-10-22T01:05:37;138989.42;;;67174.31;;
23573;SDS011;11965;53.640;10.050;2022-10-22T01:08:08;139055.23;;;67203.29;;
23573;SDS011;11965;53.640;10.050;2022-10-22T01:10:54;139204.05;;;67262.23;;
23573;SDS011;11965;53.640;10.050;2022-10-22T01:13:30;139134.84;;;67236.84;;
23573;SDS011;11965;53.640;10.050;2022-10-22T01:16:13;139041.47;;;67196.66;;
23573;SDS011;11965;53.640;10.050;2022-10-22T01:21:52;138837.00;;;67116.30;;
23573;SDS011;11965;53.640;10.050;2022-10-22T01:26:59;139137.97;;;67231.34;;
23573;SDS011;11965;53.640;10.050;2022-10-22T01:29:40;139153.83;;;67239.61;;
23573;SDS011;11965;53.640;10.050;2022-10-22T01:32:17;139151.78;;;67237.54;;
23573;SDS011;11965;53.640;10.050;2022-10-22T01:34:48;139231.06;;;67269.35;;
23573;SDS011;11965;53.640;10.050;2022-10-22T01:37:28;139171.77;;;67248.40;;
23573;SDS011;11965;53.640;10.050;2022-10-22T01:39:58;138929.91;;;67153.08;;
23573;SDS011;11965;53.640;10.050;2022-10-22T01:42:26;138987.08;;;67176.24;;
23573;SDS011;11965;53.640;10.050;2022-10-22T01:44:52;139256.67;;;67279.80;;
23573;SDS011;11965;53.640;10.050;2022-10-22T01:49:53;139102.97;;;67222.59;;
23573;SDS011;11965;53.640;10.050;2022-10-22T01:52:47;139507.67;;;67381.95;;
23573;SDS011;11965;53.640;10.050;2022-10-22T01:58:35;139557.64;;;67407.05;;
23573;SDS011;11965;53.640;10.050;2022-10-22T02:03:41;139787.30;;;67496.90;;
23573;SDS011;11965;53.640;10.050;2022-10-22T02:06:19;139454.55;;;67372.15;;
23573;SDS011;11965;53.640;10.050;2022-10-22T02:08:49;139606.45;;;67430.32;;
23573;SDS011;11965;53.640;10.050;2022-10-22T02:11:18;140025.50;;;67595.67;;
23573;SDS011;11965;53.640;10.050;2022-10-22T02:13:46;140033.92;;;67602.55;;
23573;SDS011;11965;53.640;10.050;2022-10-22T02:16:17;140176.72;;;67657.67;;
23573;SDS011;11965;53.640;10.050;2022-10-22T02:18:51;140387.48;;;67743.30;;
23573;SDS011;11965;53.640;10.050;2022-10-22T02:21:21;139986.77;;;67586.79;;
23573;SDS011;11965;53.640;10.050;2022-10-22T02:23:47;140027.47;;;67609.19;;
23573;SDS011;11965;53.640;10.050;2022-10-22T02:26:16;140422.31;;;67766.75;;
23573;SDS011;11965;53.640;10.050;2022-10-22T02:31:22;140365.56;;;67741.80;;
23573;SDS011;11965;53.640;10.050;2022-10-22T02:33:57;140434.30;;;67767.55;;
23573;SDS011;11965;53.640;10.050;2022-10-22T02:36:32;140459.80;;;67779.68;;
23573;SDS011;11965;53.640;10.050;2022-10-22T02:38:59;140272.50;;;67706.53;;
23573;SDS011;11965;53.640;10.050;2022-10-22T02:41:26;140334.86;;;67731.36;;
23573;SDS011;11965;53.640;10.050;2022-10-22T02:43:52;140460.11;;;67781.52;;
23573;SDS011;11965;53.640;10.050;2022-10-22T02:46:19;140581.17;;;67827.30;;
23573;SDS011;11965;53.640;10.050;2022-10-22T02:48:46;140403.23;;;67760.91;;
23573;SDS011;11965;53.640;10.050;2022-10-22T02:51:11;140275.89;;;67716.23;;
23573;SDS011;11965;53.640;10.050;2022-10-22T02:53:37;140582.95;;;67837.71;;
23573;SDS011;11965;53.640;10.050;2022-10-22T02:56:03;140625.73;;;67856.42;;
23573;SDS011;11965;53.640;10.050;2022-10-22T02:58:29;140642.47;;;67867.55;;
23573;SDS011;11965;53.640;10.050;2022-10-22T03:00:54;140815.84;;;67934.89;;
23573;SDS011;11965;53.640;10.050;2022-10-22T03:03:20;140872.80;;;67958.34;;
23573;SDS011;11965;53.640;10.050;2022-10-22T03:05:46;140960.55;;;68000.37;;
23573;SDS011;11965;53.640;10.050;2022-10-22T03:08:11;141143.09;;;68073.04;;
23573;SDS011;11965;53.640;10.050;2022-10-22T03:10:37;140857.77;;;67959.52;;
23573;SDS011;11965;53.640;10.050;2022-10-22T03:13:02;141119.67;;;68062.80;;
23573;SDS011;11965;53.640;10.050;2022-10-22T03:15:28;140689.48;;;67891.54;;
23573;SDS011;11965;53.640;10.050;2022-10-22T03:17:54;141028.22;;;68026.26;;
23573;SDS011;11965;53.640;10.050;2022-10-22T03:20:19;140996.48;;;68014.64;;
23573;SDS011;11965;53.640;10.050;2022-10-22T03:22:45;140985.52;;;68009.27;;
23573;SDS011;11965;53.640;10.050;2022-10-22T03:25:16;140883.80;;;67969.41;;
23573;SDS011;11965;53.640;10.050;2022-10-22T03:27:46;140907.39;;;67976.23;;
23573;SDS011;11965;53.640;10.050;2022-10-22T03:30:14;140757.83;;;67915.65;;
23573;SDS011;11965;53.640;10.050;2022-10-22T03:32:40;140913.86;;;67978.77;;
23573;SDS011;11965;53.640;10.050;2022-10-22T03:35:06;140803.14;;;67932.98;;
23573;SDS011;11965;53.640;10.050;2022-10-22T03:37:31;140822.53;;;67942.92;;
23573;SDS011;11965;53.640;10.050;2022-10-22T03:40:00;140934.81;;;67988.38;;
23573;SDS011;11965;53.640;10.050;2022-10-22T03:42:28;140914.23;;;67980.90;;
23573;SDS011;11965;53.640;10.050;2022-10-22T03:44:54;140831.22;;;67949.79;;
23573;SDS011;11965;53.640;10.050;2022-10-22T03:47:20;140841.27;;;67952.35;;
23573;SDS011;11965;53.640;10.050;2022-10-22T03:49:49;140552.55;;;67835.38;;
23573;SDS011;11965;53.640;10.050;2022-10-22T03:52:15;140769.81;;;67919.77;;
23573;SDS011;11965;53.640;10.050;2022-10-22T03:54:42;140980.72;;;68008.51;;
23573;SDS011;11965;53.640;10.050;2022-10-22T03:57:07;140778.44;;;67930.50;;
23573;SDS011;11965;53.640;10.050;2022-10-22T03:59:38;140998.92;;;68022.12;;
23573;SDS011;11965;53.640;10.050;2022-10-22T04:02:05;140903.06;;;67986.47;;
23573;SDS011;11965;53.640;10.050;2022-10-22T04:04:32;141114.44;;;68070.98;;
23573;SDS011;11965;53.640;10.050;2022-10-22T04:06:58;141025.27;;;68032.30;;
23573;SDS011;11965;53.640;10.050;2022-10-22T04:09:24;141038.06;;;68035.04;;
23573;SDS011;11965;53.640;10.050;2022-10-22T04:11:49;141063.77;;;68046.83;;
23573;SDS011;11965;53.640;10.050;2022-10-22T04:14:15;141272.48;;;68129.10;;
23573;SDS011;11965;53.640;10.050;2022-10-22T04:16:41;140794.89;;;67945.98;;
23573;SDS011;11965;53.640;10.050;2022-10-22T04:19:06;140547.23;;;67845.85;;
23573;SDS011;11965;53.640;10.050;2022-10-22T04:21:33;140987.14;;;68014.95;;
23573;SDS011;11965;53.640;10.050;2022-10-22T04:23:59;140898.48;;;67979.80;;
23573;SDS011;11965;53.640;10.050;2022-10-22T04:26:25;140781.20;;;67933.77;;
23573;SDS011;11965;53.640;10.050;2022-10-22T04:28:51;140954.70;;;68003.77;;
23573;SDS011;11965;53.640;10.050;2022-10-22T04:31:18;141024.67;;;68033.85;;
23573;SDS011;11965;53.640;10.050;2022-10-22T04:33:47;140974.59;;;68018.55;;
23573;SDS011;11965;53.640;10.050;2022-10-22T04:36:17;140976.22;;;68021.11;;
23573;SDS011;11965;53.640;10.050;2022-10-22T04:38:44;141078.95;;;68063.79;;
23573;SDS011;11965;53.640;10.050;2022-10-22T04:41:12;140965.36;;;68022.32;;
23573;SDS011;11965;53.640;10.050;2022-10-22T04:43:40;140756.30;;;67939.14;;
23573;SDS011;11965;53.640;10.050;2022-10-22T04:46:09;140850.58;;;67974.19;;
23573;SDS011;11965;53.640;10.050;2022-10-22T04:48:36;141005.36;;;68034.76;;
23573;SDS011;11965;53.640;10.050;2022-10-22T04:51:05;141079.89;;;68065.95;;
23573;SDS011;11965;53.640;10.050;2022-10-22T04:53:33;140985.02;;;68027.13;;
23573;SDS011;11965;53.640;10.050;2022-10-22T04:56:09;140813.70;;;67956.53;;
23573;SDS011;11965;53.640;10.050;2022-10-22T04:58:52;140790.83;;;67946.82;;
23573;SDS011;11965;53.640;10.050;2022-10-22T05:01:21;140932.34;;;68003.20;;
23573;SDS011;11965;53.640;10.050;2022-10-22T05:03:59;140525.39;;;67842.45;;
23573;SDS011;11965;53.640;10.050;2022-10-22T05:06:26;140857.70;;;67970.72;;
23573;SDS011;11965;53.640;10.050;2022-10-22T05:08:55;141091.83;;;68070.58;;
23573;SDS011;11965;53.640;10.050;2022-10-22T05:11:30;140881.20;;;67986.88;;
23573;SDS011;11965;53.640;10.050;2022-10-22T05:13:58;140738.41;;;67933.07;;
23573;SDS011;11965;53.640;10.050;2022-10-22T05:16:26;141013.98;;;68039.87;;
23573;SDS011;11965;53.640;10.050;2022-10-22T05:18:53;140892.72;;;67994.49;;
23573;SDS011;11965;53.640;10.050;2022-10-22T05:21:19;141018.47;;;68040.70;;
23573;SDS011;11965;53.640;10.050;2022-10-22T05:23:46;140745.64;;;67927.05;;
23573;SDS011;11965;53.640;10.050;2022-10-22T05:26:14;140581.36;;;67861.34;;
23573;SDS011;11965;53.640;10.050;2022-10-22T05:28:42;140634.23;;;67879.84;;
23573;SDS011;11965;53.640;10.050;2022-10-22T05:31:09;140782.92;;;67939.86;;
23573;SDS011;11965;53.640;10.050;2022-10-22T05:33:36;140811.45;;;67953.50;;
23573;SDS011;11965;53.640;10.050;2022-10-22T05:36:03;140718.64;;;67916.60;;
23573;SDS011;11965;53.640;10.050;2022-10-22T05:38:30;140774.14;;;67936.63;;
23573;SDS011;11965;53.640;10.050;2022-10-22T05:40:58;140775.77;;;67940.47;;
23573;SDS011;11965;53.640;10.050;2022-10-22T05:43:31;140732.86;;;67927.69;;
23573;SDS011;11965;53.640;10.050;2022-10-22T05:46:05;140443.42;;;67811.20;;
23573;SDS011;11965;53.640;10.050;2022-10-22T05:48:33;140737.33;;;67927.41;;
23573;SDS011;11965;53.640;10.050;2022-10-22T05:51:09;140969.25;;;68018.03;;
23573;SDS011;11965;53.640;10.050;2022-10-22T05:53:37;140743.67;;;67928.77;;
23573;SDS011;11965;53.640;10.050;2022-10-22T05:56:06;140765.73;;;67939.35;;
23573;SDS011;11965;53.640;10.050;2022-10-22T05:58:41;140639.11;;;67886.55;;
23573;SDS011;11965;53.640;10.050;2022-10-22T06:03:40;140603.73;;;67866.58;;
23573;SDS011;11965;53.640;10.050;2022-10-22T06:06:19;140559.52;;;67849.70;;
23573;SDS011;11965;53.640;10.050;2022-10-22T06:08:59;140968.67;;;68017.41;;
23573;SDS011;11965;53.640;10.050;2022-10-22T06:11:29;140847.59;;;67968.35;;
23573;SDS011;11965;53.640;10.050;2022-10-22T06:13:55;140809.86;;;67949.82;;
23573;SDS011;11965;53.640;10.050;2022-10-22T06:16:20;140813.41;;;67953.05;;
23573;SDS011;11965;53.640;10.050;2022-10-22T06:18:46;140913.53;;;67991.70;;
23573;SDS011;11965;53.640;10.050;2022-10-22T06:21:12;140947.64;;;68008.45;;
23573;SDS011;11965;53.640;10.050;2022-10-22T06:23:40;140800.80;;;67949.27;;
23573;SDS011;11965;53.640;10.050;2022-10-22T06:26:07;140549.80;;;67848.71;;
23573;SDS011;11965;53.640;10.050;2022-10-22T06:28:34;140763.48;;;67934.90;;
23573;SDS011;11965;53.640;10.050;2022-10-22T06:31:00;140882.97;;;67974.66;;
23573;SDS011;11965;53.640;10.050;2022-10-22T06:33:27;140940.09;;;67996.61;;
23573;SDS011;11965;53.640;10.050;2022-10-22T06:36:02;140819.73;;;67947.79;;
23573;SDS011;11965;53.640;10.050;2022-10-22T06:38:29;140938.72;;;67993.88;;
23573;SDS011;11965;53.640;10.050;2022-10-22T06:40:54;140998.73;;;68019.40;;
23573;SDS011;11965;53.640;10.050;2022-10-22T06:43:20;140727.61;;;67912.77;;
23573;SDS011;11965;53.640;10.050;2022-10-22T06:45:46;140766.30;;;67920.52;;
23573;SDS011;11965;53.640;10.050;2022-10-22T06:48:11;140766.11;;;67920.43;;
23573;SDS011;11965;53.640;10.050;2022-10-22T06:50:37;140376.42;;;67774.53;;
23573;SDS011;11965;53.640;10.050;2022-10-22T06:53:02;140610.22;;;67863.10;;
23573;SDS011;11965;53.640;10.050;2022-10-22T06:55:28;140786.66;;;67932.17;;
23573;SDS011;11965;53.640;10.050;2022-10-22T06:57:54;140762.20;;;67922.12;;
23573;SDS011;11965;53.640;10.050;2022-10-22T07:00:20;140930.28;;;67993.23;;
23573;SDS011;11965;53.640;10.050;2022-10-22T07:02:49;141052.41;;;68040.05;;
23573;SDS011;11965;53.640;10.050;2022-10-22T07:05:17;140828.02;;;67949.76;;
23573;SDS011;11965;53.640;10.050;2022-10-22T07:07:43;140868.08;;;67959.15;;
23573;SDS011;11965;53.640;10.050;2022-10-22T07:10:09;140789.48;;;67923.37;;
23573;SDS011;11965;53.640;10.050;2022-10-22T07:12:34;140469.13;;;67794.74;;
23573;SDS011;11965;53.640;10.050;2022-10-22T07:15:00;140175.61;;;67673.86;;
23573;SDS011;11965;53.640;10.050;2022-10-22T07:17:25;140224.05;;;67693.05;;
23573;SDS011;11965;53.640;10.050;2022-10-22T07:19:51;140594.86;;;67844.73;;
23573;SDS011;11965;53.640;10.050;2022-10-22T07:22:16;140556.23;;;67829.75;;
23573;SDS011;11965;53.640;10.050;2022-10-22T07:24:42;140624.92;;;67855.88;;
23573;SDS011;11965;53.640;10.050;2022-10-22T07:27:08;140490.59;;;67801.87;;
23573;SDS011;11965;53.640;10.050;2022-10-22T07:29:33;140597.39;;;67843.48;;
23573;SDS011;11965;53.640;10.050;2022-10-22T07:31:59;140687.61;;;67882.52;;
23573;SDS011;11965;53.640;10.050;2022-10-22T07:34:24;140770.61;;;67913.41;;
23573;SDS011;11965;53.640;10.050;2022-10-22T07:36:50;140690.36;;;67889.28;;
23573;SDS011;11965;53.640;10.050;2022-10-22T07:39:15;140343.73;;;67750.45;;
23573;SDS011;11965;53.640;10.050;2022-10-22T07:41:41;140706.23;;;67891.83;;
23573;SDS011;11965;53.640;10.050;2022-10-22T07:44:07;140796.41;;;67927.16;;
23573;SDS011;11965;53.640;10.050;2022-10-22T07:46:32;140620.14;;;67856.11;;
23573;SDS011;11965;53.640;10.050;2022-10-22T07:48:59;140479.91;;;67797.79;;
23573;SDS011;11965;53.640;10.050;2022-10-22T07:51:25;140243.95;;;67705.64;;
23573;SDS011;11965;53.640;10.050;2022-10-22T07:53:51;140296.72;;;67721.10;;
23573;SDS011;11965;53.640;10.050;2022-10-22T07:56:16;140124.61;;;67647.83;;
23573;SDS011;11965;53.640;10.050;2022-10-22T07:58:42;140112.80;;;67639.15;;
23573;SDS011;11965;53.640;10.050;2022-10-22T08:01:07;140205.55;;;67679.77;;
23573;SDS011;11965;53.640;10.050;2022-10-22T08:03:33;140303.98;;;67719.98;;
23573;SDS011;11965;53.640;10.050;2022-10-22T08:05:59;140323.17;;;67724.33;;
23573;SDS011;11965;53.640;10.050;2022-10-22T08:08:25;139875.00;;;67547.07;;
23573;SDS011;11965;53.640;10.050;2022-10-22T08:10:51;140233.39;;;67693.63;;
23573;SDS011;11965;53.640;10.050;2022-10-22T08:13:18;140144.30;;;67654.52;;
23573;SDS011;11965;53.640;10.050;2022-10-22T08:15:44;139985.77;;;67589.34;;
23573;SDS011;11965;53.640;10.050;2022-10-22T08:18:11;139823.75;;;67519.05;;
23573;SDS011;11965;53.640;10.050;2022-10-22T08:20:37;139826.61;;;67524.75;;
23573;SDS011;11965;53.640;10.050;2022-10-22T08:23:02;139795.08;;;67509.98;;
23573;SDS011;11965;53.640;10.050;2022-10-22T08:25:28;139833.63;;;67525.91;;
23573;SDS011;11965;53.640;10.050;2022-10-22T08:27:54;139804.94;;;67513.28;;
23573;SDS011;11965;53.640;10.050;2022-10-22T08:30:20;139904.33;;;67547.88;;
23573;SDS011;11965;53.640;10.050;2022-10-22T08:32:45;139457.83;;;67367.70;;
23573;SDS011;11965;53.640;10.050;2022-10-22T08:35:11;139637.72;;;67438.51;;
23573;SDS011;11965;53.640;10.050;2022-10-22T08:37:37;139698.23;;;67459.11;;
23573;SDS011;11965;53.640;10.050;2022-10-22T08:40:03;139812.20;;;67512.45;;
23573;SDS011;11965;53.640;10.050;2022-10-22T08:42:47;139651.75;;;67444.91;;
23573;SDS011;11965;53.640;10.050;2022-10-22T08:48:46;139920.50;;;67555.91;;
23573;SDS011;11965;53.640;10.050;2022-10-22T08:51:18;139627.14;;;67442.74;;
23573;SDS011;11965;53.640;10.050;2022-10-22T08:56:28;139868.78;;;67535.75;;
23573;SDS011;11965;53.640;10.050;2022-10-22T08:59:03;139885.11;;;67543.24;;
23573;SDS011;11965;53.640;10.050;2022-10-22T09:01:42;139726.98;;;67472.72;;
23573;SDS011;11965;53.640;10.050;2022-10-22T09:04:25;139507.53;;;67381.12;;
23573;SDS011;11965;53.640;10.050;2022-10-22T09:07:00;139336.34;;;67311.41;;
23573;SDS011;11965;53.640;10.050;2022-10-22T09:09:28;139531.09;;;67388.20;;
23573;SDS011;11965;53.640;10.050;2022-10-22T09:12:00;139547.61;;;67394.82;;
23573;SDS011;11965;53.640;10.050;2022-10-22T09:14:28;139341.72;;;67309.19;;
23573;SDS011;11965;53.640;10.050;2022-10-22T09:19:35;139149.11;;;67237.47;;
23573;SDS011;11965;53.640;10.050;2022-10-22T09:22:17;138910.69;;;67136.23;;
23573;SDS011;11965;53.640;10.050;2022-10-22T09:24:48;138836.69;;;67102.10;;
23573;SDS011;11965;53.640;10.050;2022-10-22T09:27:25;138695.48;;;67053.63;;
23573;SDS011;11965;53.640;10.050;2022-10-22T09:29:53;139135.09;;;67228.05;;
23573;SDS011;11965;53.640;10.050;2022-10-22T09:32:18;138743.52;;;67072.80;;
23573;SDS011;11965;53.640;10.050;2022-10-22T09:34:48;138318.41;;;66894.05;;
23573;SDS011;11965;53.640;10.050;2022-10-22T09:37:15;138235.11;;;66864.80;;
23573;SDS011;11965;53.640;10.050;2022-10-22T09:39:45;138333.39;;;66903.23;;
23573;SDS011;11965;53.640;10.050;2022-10-22T09:42:15;138156.14;;;66830.95;;
23573;SDS011;11965;53.640;10.050;2022-10-22T09:44:43;138104.47;;;66806.08;;
23573;SDS011;11965;53.640;10.050;2022-10-22T09:55:50;137890.91;;;66714.05;;
23573;SDS011;11965;53.640;10.050;2022-10-22T09:58:19;137797.55;;;66680.73;;
23573;SDS011;11965;53.640;10.050;2022-10-22T10:00:47;137976.02;;;66757.11;;
23573;SDS011;11965;53.640;10.050;2022-10-22T10:03:17;137851.33;;;66701.74;;
23573;SDS011;11965;53.640;10.050;2022-10-22T10:05:46;137436.73;;;66533.73;;
23573;SDS011;11965;53.640;10.050;2022-10-22T10:08:14;137304.33;;;66481.49;;
23573;SDS011;11965;53.640;10.050;2022-10-22T10:11:02;137198.16;;;66436.59;;
23573;SDS011;11965;53.640;10.050;2022-10-22T10:18:50;137405.70;;;66513.57;;
23573;SDS011;11965;53.640;10.050;2022-10-22T10:21:55;137343.14;;;66493.63;;
23573;SDS011;11965;53.640;10.050;2022-10-22T10:24:47;137242.08;;;66452.13;;
23573;SDS011;11965;53.640;10.050;2022-10-22T10:27:34;137566.59;;;66583.70;;
23573;SDS011;11965;53.640;10.050;2022-10-22T10:47:12;136669.28;;;66221.63;;
23573;SDS011;11965;53.640;10.050;2022-10-22T10:49:43;136752.97;;;66250.26;;
23573;SDS011;11965;53.640;10.050;2022-10-22T10:57:55;136808.50;;;66275.05;;
23573;SDS011;11965;53.640;10.050;2022-10-22T11:00:41;136862.80;;;66292.66;;
23573;SDS011;11965;53.640;10.050;2022-10-22T11:06:22;136537.27;;;66166.91;;
23573;SDS011;11965;53.640;10.050;2022-10-22T11:08:58;136451.94;;;66133.41;;
23573;SDS011;11965;53.640;10.050;2022-10-22T11:11:47;136370.58;;;66102.85;;
23573;SDS011;11965;53.640;10.050;2022-10-22T11:14:28;136447.08;;;66131.45;;
23573;SDS011;11965;53.640;10.050;2022-10-22T11:17:04;136532.84;;;66164.25;;
23573;SDS011;11965;53.640;10.050;2022-10-22T11:19:42;136451.28;;;66127.95;;
23573;SDS011;11965;53.640;10.050;2022-10-22T11:22:36;136312.28;;;66070.67;;
23573;SDS011;11965;53.640;10.050;2022-10-22T11:30:15;135600.41;;;65779.50;;
23573;SDS011;11965;53.640;10.050;2022-10-22T11:32:45;135933.02;;;65916.74;;
23573;SDS011;11965;53.640;10.050;2022-10-22T11:35:25;135946.48;;;65918.35;;
23573;SDS011;11965;53.640;10.050;2022-10-22T11:37:56;135704.00;;;65818.49;;
23573;SDS011;11965;53.640;10.050;2022-10-22T11:43:05;135682.16;;;65810.96;;
23573;SDS011;11965;53.640;10.050;2022-10-22T11:45:35;135653.66;;;65802.02;;
23573;SDS011;11965;53.640;10.050;2022-10-22T12:06:48;135284.19;;;65651.90;;
23573;SDS011;11965;53.640;10.050;2022-10-22T12:08:52;135626.33;;;65787.94;;
23573;SDS011;11965;53.640;10.050;2022-10-22T12:13:52;135510.84;;;65737.92;;
23573;SDS011;11965;53.640;10.050;2022-10-22T12:16:41;135441.27;;;65710.35;;
23573;SDS011;11965;53.640;10.050;2022-10-22T12:19:39;135527.80;;;65743.31;;
23573;SDS011;11965;53.640;10.050;2022-10-22T12:24:43;134857.91;;;65470.41;;
23573;SDS011;11965;53.640;10.050;2022-10-22T12:27:17;134877.31;;;65475.39;;
23573;SDS011;11965;53.640;10.050;2022-10-22T12:29:44;134768.06;;;65425.74;;
23573;SDS011;11965;53.640;10.050;2022-10-22T12:32:11;134272.75;;;65226.74;;
23573;SDS011;11965;53.640;10.050;2022-10-22T12:34:45;134627.67;;;65364.02;;
23573;SDS011;11965;53.640;10.050;2022-10-22T12:37:13;134226.14;;;65205.92;;
23573;SDS011;11965;53.640;10.050;2022-10-22T12:39:40;134144.14;;;65177.60;;
23573;SDS011;11965;53.640;10.050;2022-10-22T12:42:07;134419.53;;;65276.86;;
23573;SDS011;11965;53.640;10.050;2022-10-22T12:44:38;134482.88;;;65305.34;;
23573;SDS011;11965;53.640;10.050;2022-10-22T12:47:04;134372.75;;;65260.14;;
23573;SDS011;11965;53.640;10.050;2022-10-22T12:49:36;134228.09;;;65206.62;;
23573;SDS011;11965;53.640;10.050;2022-10-22T12:52:06;134115.72;;;65160.51;;
23573;SDS011;11965;53.640;10.050;2022-10-22T12:54:38;134200.61;;;65200.32;;
23573;SDS011;11965;53.640;10.050;2022-10-22T12:57:05;134430.30;;;65291.79;;
23573;SDS011;11965;53.640;10.050;2022-10-22T12:59:38;134335.77;;;65255.41;;
23573;SDS011;11965;53.640;10.050;2022-10-22T13:02:20;134294.77;;;65233.37;;
23573;SDS011;11965;53.640;10.050;2022-10-22T13:07:46;134222.72;;;65208.32;;
23573;SDS011;11965;53.640;10.050;2022-10-22T13:12:55;134290.19;;;65230.91;;
23573;SDS011;11965;53.640;10.050;2022-10-22T13:18:04;134515.05;;;65315.58;;
23573;SDS011;11965;53.640;10.050;2022-10-22T13:20:31;134312.08;;;65234.20;;
23573;SDS011;11965;53.640;10.050;2022-10-22T13:22:58;134056.36;;;65138.75;;
23573;SDS011;11965;53.640;10.050;2022-10-22T13:28:02;134082.55;;;65149.21;;
23573;SDS011;11965;53.640;10.050;2022-10-22T13:30:51;134434.66;;;65286.48;;
23573;SDS011;11965;53.640;10.050;2022-10-22T13:35:47;134318.52;;;65246.23;;
23573;SDS011;11965;53.640;10.050;2022-10-22T13:38:14;134057.45;;;65138.25;;
23573;SDS011;11965;53.640;10.050;2022-10-22T13:40:43;134147.02;;;65171.97;;
23573;SDS011;11965;53.640;10.050;2022-10-22T13:43:09;134426.95;;;65286.49;;
23573;SDS011;11965;53.640;10.050;2022-10-22T13:45:35;134118.83;;;65164.36;;
23573;SDS011;11965;53.640;10.050;2022-10-22T13:48:00;134341.69;;;65253.78;;
23573;SDS011;11965;53.640;10.050;2022-10-22T13:50:26;134469.86;;;65305.78;;
23573;SDS011;11965;53.640;10.050;2022-10-22T13:52:53;134170.55;;;65180.63;;
23573;SDS011;11965;53.640;10.050;2022-10-22T13:57:52;134235.75;;;65206.83;;
23573;SDS011;11965;53.640;10.050;2022-10-22T14:00:27;134240.11;;;65203.11;;
23573;SDS011;11965;53.640;10.050;2022-10-22T14:02:53;134295.77;;;65228.41;;
23573;SDS011;11965;53.640;10.050;2022-10-22T14:05:23;134198.61;;;65190.33;;
23573;SDS011;11965;53.640;10.050;2022-10-22T14:07:49;134711.64;;;65390.23;;
23573;SDS011;11965;53.640;10.050;2022-10-22T14:10:17;134739.17;;;65404.28;;
23573;SDS011;11965;53.640;10.050;2022-10-22T14:12:45;134410.53;;;65278.61;;
23573;SDS011;11965;53.640;10.050;2022-10-22T14:15:12;134587.41;;;65356.23;;
23573;SDS011;11965;53.640;10.050;2022-10-22T14:17:41;134562.72;;;65346.36;;
23573;SDS011;11965;53.640;10.050;2022-10-22T14:20:17;134635.05;;;65373.95;;
23573;SDS011;11965;53.640;10.050;2022-10-22T14:22:46;134988.45;;;65518.98;;
23573;SDS011;11965;53.640;10.050;2022-10-22T14:25:18;135119.47;;;65575.33;;
23573;SDS011;11965;53.640;10.050;2022-10-22T14:27:45;135347.23;;;65662.20;;
23573;SDS011;11965;53.640;10.050;2022-10-22T14:30:15;135515.73;;;65730.64;;
23573;SDS011;11965;53.640;10.050;2022-10-22T14:32:43;135372.42;;;65671.63;;
23573;SDS011;11965;53.640;10.050;2022-10-22T14:35:11;135272.05;;;65637.67;;
23573;SDS011;11965;53.640;10.050;2022-10-22T14:37:38;134864.34;;;65470.97;;
23573;SDS011;11965;53.640;10.050;2022-10-22T14:40:04;135348.47;;;65666.31;;
23573;SDS011;11965;53.640;10.050;2022-10-22T14:42:30;135228.22;;;65618.29;;
23573;SDS011;11965;53.640;10.050;2022-10-22T14:45:05;134986.23;;;65518.98;;
23573;SDS011;11965;53.640;10.050;2022-10-22T14:47:31;134545.27;;;65338.40;;
23573;SDS011;11965;53.640;10.050;2022-10-22T14:49:56;134454.20;;;65303.39;;
23573;SDS011;11965;53.640;10.050;2022-10-22T14:52:22;134392.92;;;65277.98;;
23573;SDS011;11965;53.640;10.050;2022-10-22T14:54:48;134454.13;;;65301.74;;
23573;SDS011;11965;53.640;10.050;2022-10-22T14:57:13;134547.55;;;65342.41;;